KFLG/FLG METAR and TAF weather

Enter ICAO airport designator
Station Type Date Time Source
KFLG METAR 2020/11/25 21:57 UTC NOAA

KFLG 252157Z 20012KT 10SM CLR 09/M13 A3008 RMK AO2 SLP171 T00891133


Station Type Date Time Source
KFLG Decoded METAR 2020/11/25 21:57 UTC NOAA

FLAGSTAFF PULLIAM AIRPORT, AZ, United States (KFLG) 35-08N 111-40W 2134M
Nov 25, 2020 - 04:57 PM EST / 2020.11.25 2157 UTC
Wind: from the SSW (200 degrees) at 14 MPH (12 KT):0
Visibility: 10 mile(s):0
Sky conditions: clear
Temperature: 48.0 F (8.9 C)
Dew Point: 8.1 F (-13.3 C)
Relative Humidity: 19%
Pressure (altimeter): 30.08 in. Hg (1018 hPa)
ob: KFLG 252157Z 20012KT 10SM CLR 09/M13 A3008 RMK AO2 SLP171 T00891133
cycle: 22

Station Type Date Time Source
KFLG TAF 2020/11/25 18:22 UTC NOAA

TAF KFLG 251720Z 2518/2618 23009G15KT P6SM SKC
FM260300 VRB06KT P6SM SKC

Example: see airport list